sensor_id;sensor_type;location;lat;lon;timestamp;pressure;altitude;pressure_sealevel;temperature;humidity
61205;BME280;47068;55.780;37.520;2022-12-29T00:01:52;99705.91;;;2.63;71.85
61205;BME280;47068;55.780;37.520;2022-12-29T00:04:18;99685.78;;;2.40;71.40
61205;BME280;47068;55.780;37.520;2022-12-29T00:06:43;99709.97;;;2.56;71.34
61205;BME280;47068;55.780;37.520;2022-12-29T00:09:11;99671.78;;;2.28;71.11
61205;BME280;47068;55.780;37.520;2022-12-29T00:11:38;99709.31;;;2.41;70.73
61205;BME280;47068;55.780;37.520;2022-12-29T00:14:04;99715.81;;;2.35;71.30
61205;BME280;47068;55.780;37.520;2022-12-29T00:16:47;99684.50;;;2.21;71.55
61205;BME280;47068;55.780;37.520;2022-12-29T00:19:13;99663.53;;;2.09;71.45
61205;BME280;47068;55.780;37.520;2022-12-29T00:21:58;99722.19;;;2.44;71.24
61205;BME280;47068;55.780;37.520;2022-12-29T00:24:52;99721.47;;;2.42;70.37
61205;BME280;47068;55.780;37.520;2022-12-29T00:27:31;99725.97;;;2.16;71.10
61205;BME280;47068;55.780;37.520;2022-12-29T00:30:21;99724.28;;;2.28;70.90
61205;BME280;47068;55.780;37.520;2022-12-29T00:33:17;99679.84;;;2.01;70.62
61205;BME280;47068;55.780;37.520;2022-12-29T00:36:07;99719.59;;;2.20;69.69
61205;BME280;47068;55.780;37.520;2022-12-29T00:38:37;99732.16;;;2.28;70.05
61205;BME280;47068;55.780;37.520;2022-12-29T00:41:21;99726.78;;;2.29;68.96
61205;BME280;47068;55.780;37.520;2022-12-29T00:44:06;99741.69;;;2.29;69.09
61205;BME280;47068;55.780;37.520;2022-12-29T00:46:40;99735.59;;;2.28;68.70
61205;BME280;47068;55.780;37.520;2022-12-29T00:49:08;99739.19;;;2.27;68.70
61205;BME280;47068;55.780;37.520;2022-12-29T00:51:53;99738.13;;;2.30;68.25
61205;BME280;47068;55.780;37.520;2022-12-29T00:54:20;99723.03;;;2.21;67.73
61205;BME280;47068;55.780;37.520;2022-12-29T00:56:47;99730.72;;;2.11;68.34
61205;BME280;47068;55.780;37.520;2022-12-29T00:59:13;99738.25;;;2.16;68.65
61205;BME280;47068;55.780;37.520;2022-12-29T01:01:39;99744.25;;;2.18;68.64
61205;BME280;47068;55.780;37.520;2022-12-29T01:04:05;99720.03;;;2.02;68.69
61205;BME280;47068;55.780;37.520;2022-12-29T01:06:32;99754.97;;;2.15;68.58
61205;BME280;47068;55.780;37.520;2022-12-29T01:08:57;99703.78;;;1.96;68.34
61205;BME280;47068;55.780;37.520;2022-12-29T01:11:41;99737.22;;;2.18;68.25
61205;BME280;47068;55.780;37.520;2022-12-29T01:14:07;99751.28;;;2.17;68.05
61205;BME280;47068;55.780;37.520;2022-12-29T01:16:33;99737.16;;;1.94;67.77
61205;BME280;47068;55.780;37.520;2022-12-29T01:18:59;99713.19;;;1.75;68.50
61205;BME280;47068;55.780;37.520;2022-12-29T01:21:25;99720.63;;;1.81;68.02
61205;BME280;47068;55.780;37.520;2022-12-29T01:23:51;99751.22;;;2.06;68.43
61205;BME280;47068;55.780;37.520;2022-12-29T01:26:17;99697.13;;;1.67;67.16
61205;BME280;47068;55.780;37.520;2022-12-29T01:28:43;99749.56;;;1.92;67.62
61205;BME280;47068;55.780;37.520;2022-12-29T01:31:10;99765.59;;;2.01;67.57
61205;BME280;47068;55.780;37.520;2022-12-29T01:33:38;99764.44;;;2.05;68.23
61205;BME280;47068;55.780;37.520;2022-12-29T01:36:06;99564.00;;;0.85;67.91
61205;BME280;47068;55.780;37.520;2022-12-29T01:38:32;99770.97;;;1.99;67.92
61205;BME280;47068;55.780;37.520;2022-12-29T01:40:58;99754.81;;;1.92;67.79
61205;BME280;47068;55.780;37.520;2022-12-29T01:46:11;99762.34;;;1.97;68.00
61205;BME280;47068;55.780;37.520;2022-12-29T01:48:39;99765.09;;;1.95;68.76
61205;BME280;47068;55.780;37.520;2022-12-29T01:51:06;99756.78;;;2.02;68.11
61205;BME280;47068;55.780;37.520;2022-12-29T01:53:31;99767.59;;;1.97;67.62
61205;BME280;47068;55.780;37.520;2022-12-29T01:56:02;99772.25;;;1.81;67.73
61205;BME280;47068;55.780;37.520;2022-12-29T01:58:33;99726.09;;;1.53;68.61
61205;BME280;47068;55.780;37.520;2022-12-29T02:01:00;99749.81;;;1.64;68.43
61205;BME280;47068;55.780;37.520;2022-12-29T02:03:26;99772.25;;;1.81;68.39
61205;BME280;47068;55.780;37.520;2022-12-29T02:05:57;99771.63;;;1.77;68.33
61205;BME280;47068;55.780;37.520;2022-12-29T02:08:28;99771.81;;;1.74;68.07
61205;BME280;47068;55.780;37.520;2022-12-29T02:10:55;99764.63;;;1.65;68.04
61205;BME280;47068;55.780;37.520;2022-12-29T02:13:26;99777.81;;;1.64;68.61
61205;BME280;47068;55.780;37.520;2022-12-29T02:39:21;99784.84;;;1.38;68.11
61205;BME280;47068;55.780;37.520;2022-12-29T02:50:20;99800.94;;;1.06;68.95
61205;BME280;47068;55.780;37.520;2022-12-29T02:53:04;99765.44;;;0.75;69.16
61205;BME280;47068;55.780;37.520;2022-12-29T02:55:31;99806.81;;;0.83;69.91
61205;BME280;47068;55.780;37.520;2022-12-29T03:00:37;99800.91;;;0.94;68.81
61205;BME280;47068;55.780;37.520;2022-12-29T03:09:07;99801.41;;;0.86;69.39
61205;BME280;47068;55.780;37.520;2022-12-29T03:11:54;99730.97;;;0.42;69.60
61205;BME280;47068;55.780;37.520;2022-12-29T03:15:02;99806.22;;;0.92;69.01
61205;BME280;47068;55.780;37.520;2022-12-29T03:17:56;99786.84;;;0.82;69.41
61205;BME280;47068;55.780;37.520;2022-12-29T03:20:28;99815.06;;;1.04;68.36
61205;BME280;47068;55.780;37.520;2022-12-29T03:23:00;99811.81;;;1.00;68.48
61205;BME280;47068;55.780;37.520;2022-12-29T03:25:32;99767.63;;;0.69;68.37
61205;BME280;47068;55.780;37.520;2022-12-29T03:28:03;99789.75;;;0.77;68.28
61205;BME280;47068;55.780;37.520;2022-12-29T03:30:32;99785.56;;;0.75;68.07
61205;BME280;47068;55.780;37.520;2022-12-29T03:33:03;99818.09;;;0.98;68.50
61205;BME280;47068;55.780;37.520;2022-12-29T03:35:31;99824.38;;;0.95;67.96
61205;BME280;47068;55.780;37.520;2022-12-29T03:40:27;99830.41;;;0.83;69.13
61205;BME280;47068;55.780;37.520;2022-12-29T03:42:54;99798.94;;;0.70;68.65
61205;BME280;47068;55.780;37.520;2022-12-29T03:45:20;99841.34;;;0.90;68.04
61205;BME280;47068;55.780;37.520;2022-12-29T03:47:46;99832.47;;;0.78;67.65
61205;BME280;47068;55.780;37.520;2022-12-29T03:50:12;99839.81;;;0.73;68.13
61205;BME280;47068;55.780;37.520;2022-12-29T03:52:38;99836.25;;;0.74;68.02
61205;BME280;47068;55.780;37.520;2022-12-29T03:55:04;99837.94;;;0.75;68.23
61205;BME280;47068;55.780;37.520;2022-12-29T03:57:30;99839.22;;;0.82;68.75
61205;BME280;47068;55.780;37.520;2022-12-29T03:59:55;99769.59;;;0.38;68.02
61205;BME280;47068;55.780;37.520;2022-12-29T04:02:21;99841.63;;;0.85;68.02
61205;BME280;47068;55.780;37.520;2022-12-29T04:04:49;99844.84;;;0.76;68.26
61205;BME280;47068;55.780;37.520;2022-12-29T04:07:24;99852.50;;;0.79;67.97
61205;BME280;47068;55.780;37.520;2022-12-29T04:09:50;99850.41;;;0.84;68.10
61205;BME280;47068;55.780;37.520;2022-12-29T04:12:16;99809.56;;;0.55;67.86
61205;BME280;47068;55.780;37.520;2022-12-29T04:14:41;99856.41;;;0.86;67.73
61205;BME280;47068;55.780;37.520;2022-12-29T04:17:07;99853.69;;;0.88;67.54
61205;BME280;47068;55.780;37.520;2022-12-29T04:19:32;99851.81;;;0.90;67.07
61205;BME280;47068;55.780;37.520;2022-12-29T04:21:57;99857.06;;;0.90;67.32
61205;BME280;47068;55.780;37.520;2022-12-29T04:24:23;99858.09;;;0.87;67.10
61205;BME280;47068;55.780;37.520;2022-12-29T04:26:49;99862.81;;;0.68;66.83
61205;BME280;47068;55.780;37.520;2022-12-29T04:29:14;99860.22;;;0.68;66.75
61205;BME280;47068;55.780;37.520;2022-12-29T04:31:40;99854.66;;;0.72;67.42
61205;BME280;47068;55.780;37.520;2022-12-29T04:34:05;99856.97;;;0.77;67.15
61205;BME280;47068;55.780;37.520;2022-12-29T04:36:30;99858.75;;;0.76;67.13
61205;BME280;47068;55.780;37.520;2022-12-29T04:38:56;99865.22;;;0.71;66.43
61205;BME280;47068;55.780;37.520;2022-12-29T04:41:22;99861.69;;;0.72;66.64
61205;BME280;47068;55.780;37.520;2022-12-29T04:43:48;99837.16;;;0.46;66.34
61205;BME280;47068;55.780;37.520;2022-12-29T04:46:13;99870.13;;;0.63;66.82
61205;BME280;47068;55.780;37.520;2022-12-29T04:48:39;99868.47;;;0.62;67.58
61205;BME280;47068;55.780;37.520;2022-12-29T04:51:04;99871.72;;;0.65;67.17
61205;BME280;47068;55.780;37.520;2022-12-29T04:53:30;99787.78;;;0.13;66.85
61205;BME280;47068;55.780;37.520;2022-12-29T04:55:55;99842.66;;;0.42;67.35
61205;BME280;47068;55.780;37.520;2022-12-29T04:58:21;99844.66;;;0.38;67.16
61205;BME280;47068;55.780;37.520;2022-12-29T05:00:47;99833.44;;;0.22;67.46
61205;BME280;47068;55.780;37.520;2022-12-29T05:03:13;99866.59;;;0.50;67.46
61205;BME280;47068;55.780;37.520;2022-12-29T05:05:38;99826.84;;;0.02;67.69
61205;BME280;47068;55.780;37.520;2022-12-29T05:08:04;99880.53;;;0.22;68.38
61205;BME280;47068;55.780;37.520;2022-12-29T05:10:32;99882.53;;;0.18;68.53
61205;BME280;47068;55.780;37.520;2022-12-29T05:12:58;99859.91;;;0.03;68.52
61205;BME280;47068;55.780;37.520;2022-12-29T05:15:23;99892.91;;;0.20;68.90
61205;BME280;47068;55.780;37.520;2022-12-29T05:17:49;99880.75;;;0.19;68.67
61205;BME280;47068;55.780;37.520;2022-12-29T05:20:14;99885.44;;;0.14;69.22
61205;BME280;47068;55.780;37.520;2022-12-29T05:22:40;99878.88;;;0.07;69.02
61205;BME280;47068;55.780;37.520;2022-12-29T05:25:06;99906.06;;;0.32;68.83
61205;BME280;47068;55.780;37.520;2022-12-29T05:27:31;99886.25;;;0.28;69.18
61205;BME280;47068;55.780;37.520;2022-12-29T05:29:57;99900.06;;;0.45;68.36
61205;BME280;47068;55.780;37.520;2022-12-29T05:32:22;99897.44;;;0.45;68.55
61205;BME280;47068;55.780;37.520;2022-12-29T05:34:48;99914.47;;;0.37;68.19
61205;BME280;47068;55.780;37.520;2022-12-29T05:37:13;99855.34;;;0.07;68.06
61205;BME280;47068;55.780;37.520;2022-12-29T05:39:39;99904.56;;;0.43;68.19
61205;BME280;47068;55.780;37.520;2022-12-29T05:42:04;99910.53;;;0.45;67.71
61205;BME280;47068;55.780;37.520;2022-12-29T05:44:30;99913.34;;;0.42;67.79
61205;BME280;47068;55.780;37.520;2022-12-29T05:46:55;99909.44;;;0.34;68.22
61205;BME280;47068;55.780;37.520;2022-12-29T05:49:21;99911.00;;;0.37;68.64
61205;BME280;47068;55.780;37.520;2022-12-29T05:51:46;99915.03;;;0.43;68.28
61205;BME280;47068;55.780;37.520;2022-12-29T05:54:12;99896.16;;;0.37;68.11
61205;BME280;47068;55.780;37.520;2022-12-29T05:56:37;99899.91;;;0.48;68.21
61205;BME280;47068;55.780;37.520;2022-12-29T05:59:02;99906.16;;;0.45;67.89
61205;BME280;47068;55.780;37.520;2022-12-29T06:01:28;99882.22;;;0.23;67.56
61205;BME280;47068;55.780;37.520;2022-12-29T06:03:53;99881.31;;;0.24;67.92
61205;BME280;47068;55.780;37.520;2022-12-29T06:06:19;99897.16;;;0.35;68.08
61205;BME280;47068;55.780;37.520;2022-12-29T06:08:45;99914.63;;;0.49;67.45
61205;BME280;47068;55.780;37.520;2022-12-29T06:11:10;99913.53;;;0.53;67.45
61205;BME280;47068;55.780;37.520;2022-12-29T06:13:35;99880.91;;;0.30;67.25
61205;BME280;47068;55.780;37.520;2022-12-29T06:16:01;99867.13;;;0.14;67.43
61205;BME280;47068;55.780;37.520;2022-12-29T06:18:27;99925.22;;;0.47;67.62
61205;BME280;47068;55.780;37.520;2022-12-29T06:20:53;99902.59;;;0.32;67.62
61205;BME280;47068;55.780;37.520;2022-12-29T06:23:18;99850.38;;;0.02;67.43
61205;BME280;47068;55.780;37.520;2022-12-29T06:25:44;99920.38;;;0.41;67.47
61205;BME280;47068;55.780;37.520;2022-12-29T06:28:10;99842.16;;;-0.06;67.79
61205;BME280;47068;55.780;37.520;2022-12-29T06:30:36;99889.81;;;0.27;67.74
61205;BME280;47068;55.780;37.520;2022-12-29T06:33:01;99930.25;;;0.50;68.25
61205;BME280;47068;55.780;37.520;2022-12-29T06:35:27;99904.84;;;0.38;67.97
61205;BME280;47068;55.780;37.520;2022-12-29T06:37:52;99893.81;;;0.33;67.70
61205;BME280;47068;55.780;37.520;2022-12-29T06:40:17;99922.84;;;0.57;67.83
61205;BME280;47068;55.780;37.520;2022-12-29T06:42:43;99934.19;;;0.57;67.61
61205;BME280;47068;55.780;37.520;2022-12-29T06:45:09;99935.88;;;0.58;67.47
61205;BME280;47068;55.780;37.520;2022-12-29T06:47:35;99923.78;;;0.56;67.17
61205;BME280;47068;55.780;37.520;2022-12-29T06:50:01;99933.06;;;0.47;66.93
61205;BME280;47068;55.780;37.520;2022-12-29T06:52:27;99933.16;;;0.31;67.25
61205;BME280;47068;55.780;37.520;2022-12-29T06:54:54;99928.41;;;0.38;67.47
61205;BME280;47068;55.780;37.520;2022-12-29T06:57:20;99931.19;;;0.49;67.35
61205;BME280;47068;55.780;37.520;2022-12-29T06:59:46;99903.63;;;0.44;67.39
61205;BME280;47068;55.780;37.520;2022-12-29T07:02:12;99934.06;;;0.73;67.06
61205;BME280;47068;55.780;37.520;2022-12-29T07:04:39;99931.81;;;0.81;67.23
61205;BME280;47068;55.780;37.520;2022-12-29T07:07:05;99926.38;;;0.84;66.56
61205;BME280;47068;55.780;37.520;2022-12-29T07:09:30;99884.16;;;0.62;66.80
61205;BME280;47068;55.780;37.520;2022-12-29T07:11:56;99928.59;;;0.90;66.38
61205;BME280;47068;55.780;37.520;2022-12-29T07:14:22;99935.25;;;0.96;66.24
61205;BME280;47068;55.780;37.520;2022-12-29T07:16:47;99934.09;;;1.00;66.05
61205;BME280;47068;55.780;37.520;2022-12-29T07:19:13;99935.88;;;0.99;65.81
61205;BME280;47068;55.780;37.520;2022-12-29T07:21:38;99937.16;;;1.06;65.73
61205;BME280;47068;55.780;37.520;2022-12-29T07:24:04;99750.44;;;-0.03;65.53
61205;BME280;47068;55.780;37.520;2022-12-29T07:26:30;99940.28;;;1.26;65.47
61205;BME280;47068;55.780;37.520;2022-12-29T07:28:55;99939.69;;;1.35;64.77
61205;BME280;47068;55.780;37.520;2022-12-29T07:31:22;99943.47;;;1.31;64.52
61205;BME280;47068;55.780;37.520;2022-12-29T07:33:48;99943.31;;;1.19;64.24
61205;BME280;47068;55.780;37.520;2022-12-29T07:36:15;99939.03;;;1.04;64.40
61205;BME280;47068;55.780;37.520;2022-12-29T07:38:42;99946.00;;;0.91;64.83
61205;BME280;47068;55.780;37.520;2022-12-29T07:41:07;99935.91;;;0.85;64.84
61205;BME280;47068;55.780;37.520;2022-12-29T07:43:33;99942.75;;;0.88;65.43
61205;BME280;47068;55.780;37.520;2022-12-29T07:45:59;99917.78;;;0.82;65.57
61205;BME280;47068;55.780;37.520;2022-12-29T07:48:25;99942.00;;;1.12;65.01
61205;BME280;47068;55.780;37.520;2022-12-29T07:50:51;99918.66;;;1.09;64.78
61205;BME280;47068;55.780;37.520;2022-12-29T07:53:17;99949.88;;;1.39;64.23
61205;BME280;47068;55.780;37.520;2022-12-29T07:55:42;99926.00;;;1.44;64.34
61205;BME280;47068;55.780;37.520;2022-12-29T07:58:08;99893.31;;;1.23;63.26
61205;BME280;47068;55.780;37.520;2022-12-29T08:00:33;99952.84;;;1.47;63.70
61205;BME280;47068;55.780;37.520;2022-12-29T08:02:59;99955.78;;;1.43;63.76
61205;BME280;47068;55.780;37.520;2022-12-29T08:05:25;99957.97;;;1.36;63.84
61205;BME280;47068;55.780;37.520;2022-12-29T08:07:50;99949.00;;;1.26;64.12
61205;BME280;47068;55.780;37.520;2022-12-29T08:10:16;99923.09;;;0.95;63.92
61205;BME280;47068;55.780;37.520;2022-12-29T08:12:42;99959.81;;;1.07;64.09
61205;BME280;47068;55.780;37.520;2022-12-29T08:15:09;99972.78;;;0.96;64.55
61205;BME280;47068;55.780;37.520;2022-12-29T08:17:35;99963.94;;;0.97;64.36
61205;BME280;47068;55.780;37.520;2022-12-29T08:20:01;99963.59;;;1.03;64.35
61205;BME280;47068;55.780;37.520;2022-12-29T08:22:26;99953.75;;;1.07;64.62
61205;BME280;47068;55.780;37.520;2022-12-29T08:24:52;99953.81;;;1.05;64.40
61205;BME280;47068;55.780;37.520;2022-12-29T08:27:18;99961.22;;;0.99;64.78
61205;BME280;47068;55.780;37.520;2022-12-29T08:29:43;99967.16;;;0.88;64.32
61205;BME280;47068;55.780;37.520;2022-12-29T08:32:09;99974.34;;;0.85;64.99
61205;BME280;47068;55.780;37.520;2022-12-29T08:34:35;99913.91;;;0.47;64.93
61205;BME280;47068;55.780;37.520;2022-12-29T08:37:00;99985.13;;;0.80;64.90
61205;BME280;47068;55.780;37.520;2022-12-29T08:39:26;99956.72;;;0.60;65.20
61205;BME280;47068;55.780;37.520;2022-12-29T08:41:51;99978.13;;;0.66;65.18
61205;BME280;47068;55.780;37.520;2022-12-29T08:44:17;99968.97;;;0.73;65.19
61205;BME280;47068;55.780;37.520;2022-12-29T08:46:42;99965.31;;;0.76;65.09
61205;BME280;47068;55.780;37.520;2022-12-29T08:49:08;99970.06;;;0.84;65.48
61205;BME280;47068;55.780;37.520;2022-12-29T08:51:33;99965.09;;;0.93;65.16
61205;BME280;47068;55.780;37.520;2022-12-29T08:54:00;99964.91;;;0.96;65.37
61205;BME280;47068;55.780;37.520;2022-12-29T08:56:25;99963.13;;;0.97;65.08
61205;BME280;47068;55.780;37.520;2022-12-29T08:58:52;99907.34;;;0.68;65.16
61205;BME280;47068;55.780;37.520;2022-12-29T09:01:17;99967.00;;;1.04;65.64
61205;BME280;47068;55.780;37.520;2022-12-29T09:03:43;99965.06;;;1.07;65.09
61205;BME280;47068;55.780;37.520;2022-12-29T09:06:09;99977.00;;;1.11;65.37
61205;BME280;47068;55.780;37.520;2022-12-29T09:08:34;99983.84;;;1.14;65.21
61205;BME280;47068;55.780;37.520;2022-12-29T09:11:26;99952.44;;;1.00;64.99
61205;BME280;47068;55.780;37.520;2022-12-29T09:13:52;99933.97;;;0.89;64.74
61205;BME280;47068;55.780;37.520;2022-12-29T09:16:20;99957.63;;;0.73;65.13
61205;BME280;47068;55.780;37.520;2022-12-29T09:18:46;99975.69;;;0.77;65.67
61205;BME280;47068;55.780;37.520;2022-12-29T09:21:12;99982.97;;;0.87;65.71
61205;BME280;47068;55.780;37.520;2022-12-29T09:23:38;99943.22;;;0.80;65.38
61205;BME280;47068;55.780;37.520;2022-12-29T09:26:04;99969.00;;;1.00;65.00
61205;BME280;47068;55.780;37.520;2022-12-29T09:28:30;99983.69;;;1.03;65.21
61205;BME280;47068;55.780;37.520;2022-12-29T09:30:56;99961.69;;;1.05;64.87
61205;BME280;47068;55.780;37.520;2022-12-29T09:33:22;99965.06;;;1.07;65.27
61205;BME280;47068;55.780;37.520;2022-12-29T09:35:58;99971.22;;;1.06;65.14
61205;BME280;47068;55.780;37.520;2022-12-29T09:38:25;99967.22;;;1.01;64.31
61205;BME280;47068;55.780;37.520;2022-12-29T09:40:56;99969.63;;;1.04;64.97
61205;BME280;47068;55.780;37.520;2022-12-29T09:43:49;99968.44;;;1.09;64.60
61205;BME280;47068;55.780;37.520;2022-12-29T09:52:25;99895.72;;;0.72;64.76
61205;BME280;47068;55.780;37.520;2022-12-29T09:55:15;99971.19;;;1.21;64.37
61205;BME280;47068;55.780;37.520;2022-12-29T09:57:54;99937.09;;;1.08;64.81
61205;BME280;47068;55.780;37.520;2022-12-29T10:00:36;99974.94;;;1.31;64.61
61205;BME280;47068;55.780;37.520;2022-12-29T10:03:09;99977.63;;;1.29;64.60
61205;BME280;47068;55.780;37.520;2022-12-29T10:13:50;99972.81;;;1.09;64.25
61205;BME280;47068;55.780;37.520;2022-12-29T10:16:22;99938.00;;;0.80;64.96
61205;BME280;47068;55.780;37.520;2022-12-29T10:25:00;99973.84;;;1.06;65.59
61205;BME280;47068;55.780;37.520;2022-12-29T10:27:31;99977.59;;;1.16;65.51
61205;BME280;47068;55.780;37.520;2022-12-29T10:29:59;99957.34;;;1.18;65.36
61205;BME280;47068;55.780;37.520;2022-12-29T10:32:39;99979.19;;;1.32;65.32
61205;BME280;47068;55.780;37.520;2022-12-29T10:35:33;99966.63;;;1.24;64.57
61205;BME280;47068;55.780;37.520;2022-12-29T10:43:49;99972.22;;;1.18;65.29
61205;BME280;47068;55.780;37.520;2022-12-29T10:46:21;99972.66;;;1.25;64.76
61205;BME280;47068;55.780;37.520;2022-12-29T10:48:48;99957.91;;;1.24;64.88
61205;BME280;47068;55.780;37.520;2022-12-29T10:51:26;99958.59;;;1.40;64.85
61205;BME280;47068;55.780;37.520;2022-12-29T10:54:00;99957.16;;;1.48;64.13
61205;BME280;47068;55.780;37.520;2022-12-29T10:58:59;99979.47;;;1.41;64.12
61205;BME280;47068;55.780;37.520;2022-12-29T11:01:37;99929.81;;;1.26;64.01
61205;BME280;47068;55.780;37.520;2022-12-29T11:07:11;99950.97;;;1.49;64.74
61205;BME280;47068;55.780;37.520;2022-12-29T11:09:38;99944.22;;;1.45;64.48
61205;BME280;47068;55.780;37.520;2022-12-29T11:12:25;99949.53;;;1.58;64.74
61205;BME280;47068;55.780;37.520;2022-12-29T11:15:14;99952.59;;;1.65;63.89
61205;BME280;47068;55.780;37.520;2022-12-29T11:17:56;99948.19;;;1.65;63.72
61205;BME280;47068;55.780;37.520;2022-12-29T11:20:35;99945.56;;;1.65;64.10
61205;BME280;47068;55.780;37.520;2022-12-29T11:23:02;99929.78;;;1.52;63.77
61205;BME280;47068;55.780;37.520;2022-12-29T11:25:28;99944.28;;;1.58;63.63
61205;BME280;47068;55.780;37.520;2022-12-29T11:28:04;99945.00;;;1.60;64.30
61205;BME280;47068;55.780;37.520;2022-12-29T11:30:39;99836.66;;;0.95;63.83
61205;BME280;47068;55.780;37.520;2022-12-29T11:33:04;99946.69;;;1.61;63.86
61205;BME280;47068;55.780;37.520;2022-12-29T11:35:36;99884.09;;;1.17;63.60
61205;BME280;47068;55.780;37.520;2022-12-29T11:38:04;99950.22;;;1.47;63.63
61205;BME280;47068;55.780;37.520;2022-12-29T11:40:30;99935.84;;;1.40;63.62
61205;BME280;47068;55.780;37.520;2022-12-29T11:42:59;99944.84;;;1.36;64.09
61205;BME280;47068;55.780;37.520;2022-12-29T11:45:30;99944.44;;;1.42;64.96
61205;BME280;47068;55.780;37.520;2022-12-29T11:48:06;99944.88;;;1.49;63.94
61205;BME280;47068;55.780;37.520;2022-12-29T11:50:35;99942.25;;;1.49;64.83
61205;BME280;47068;55.780;37.520;2022-12-29T11:53:17;99911.72;;;1.35;64.93
61205;BME280;47068;55.780;37.520;2022-12-29T11:55:58;99957.09;;;1.63;64.51
61205;BME280;47068;55.780;37.520;2022-12-29T11:58:36;99953.03;;;1.71;64.45
61205;BME280;47068;55.780;37.520;2022-12-29T12:01:17;99962.59;;;1.72;64.52
61205;BME280;47068;55.780;37.520;2022-12-29T12:06:21;99938.72;;;1.50;64.63
61205;BME280;47068;55.780;37.520;2022-12-29T12:08:53;99971.47;;;1.70;65.05
61205;BME280;47068;55.780;37.520;2022-12-29T12:11:29;99959.19;;;1.57;65.10
61205;BME280;47068;55.780;37.520;2022-12-29T12:14:14;99984.06;;;1.65;65.27
61205;BME280;47068;55.780;37.520;2022-12-29T12:16:43;99975.13;;;1.67;65.01
61205;BME280;47068;55.780;37.520;2022-12-29T12:19:30;99974.53;;;1.76;65.40
61205;BME280;47068;55.780;37.520;2022-12-29T12:22:31;99970.38;;;1.86;65.05
61205;BME280;47068;55.780;37.520;2022-12-29T12:27:39;99967.44;;;1.91;64.38
61205;BME280;47068;55.780;37.520;2022-12-29T12:30:15;99956.69;;;1.81;64.26
61205;BME280;47068;55.780;37.520;2022-12-29T12:49:08;99961.97;;;1.94;64.59
61205;BME280;47068;55.780;37.520;2022-12-29T13:02:32;99957.19;;;1.61;66.11
61205;BME280;47068;55.780;37.520;2022-12-29T13:18:35;99961.09;;;1.81;66.36
61205;BME280;47068;55.780;37.520;2022-12-29T13:21:15;99971.56;;;1.68;66.30
61205;BME280;47068;55.780;37.520;2022-12-29T13:23:55;99919.13;;;1.29;66.67
61205;BME280;47068;55.780;37.520;2022-12-29T13:26:35;99967.47;;;1.51;66.82
61205;BME280;47068;55.780;37.520;2022-12-29T13:29:31;99970.69;;;1.55;66.85
61205;BME280;47068;55.780;37.520;2022-12-29T13:38:08;99936.31;;;1.59;67.20
61205;BME280;47068;55.780;37.520;2022-12-29T13:40:40;99960.47;;;1.77;67.37
61205;BME280;47068;55.780;37.520;2022-12-29T13:43:07;99959.56;;;1.78;66.69
61205;BME280;47068;55.780;37.520;2022-12-29T13:45:34;99955.66;;;1.71;66.68
61205;BME280;47068;55.780;37.520;2022-12-29T13:51:04;99943.72;;;1.53;67.10
61205;BME280;47068;55.780;37.520;2022-12-29T13:56:30;99958.34;;;1.57;68.01
61205;BME280;47068;55.780;37.520;2022-12-29T14:01:59;99951.41;;;1.56;67.51
61205;BME280;47068;55.780;37.520;2022-12-29T14:04:29;99931.34;;;1.42;67.67
61205;BME280;47068;55.780;37.520;2022-12-29T14:07:04;99959.09;;;1.59;68.32
61205;BME280;47068;55.780;37.520;2022-12-29T14:09:46;99955.84;;;1.68;68.32
61205;BME280;47068;55.780;37.520;2022-12-29T14:15:04;99948.22;;;1.90;69.49
61205;BME280;47068;55.780;37.520;2022-12-29T14:17:32;99959.25;;;1.95;69.17
61205;BME280;47068;55.780;37.520;2022-12-29T14:19:57;99956.63;;;1.95;68.57
61205;BME280;47068;55.780;37.520;2022-12-29T14:22:25;99955.84;;;1.81;67.84
61205;BME280;47068;55.780;37.520;2022-12-29T14:24:53;99931.38;;;1.55;67.83
61205;BME280;47068;55.780;37.520;2022-12-29T14:29:46;99753.41;;;0.46;68.54
61205;BME280;47068;55.780;37.520;2022-12-29T14:34:47;99959.41;;;1.80;68.58
61205;BME280;47068;55.780;37.520;2022-12-29T14:37:26;99960.06;;;1.83;68.52
61205;BME280;47068;55.780;37.520;2022-12-29T14:40:05;99960.69;;;1.87;68.03
61205;BME280;47068;55.780;37.520;2022-12-29T14:42:34;99960.59;;;1.88;67.57
61205;BME280;47068;55.780;37.520;2022-12-29T14:47:49;99962.81;;;1.94;67.64
61205;BME280;47068;55.780;37.520;2022-12-29T14:50:39;99951.69;;;1.78;67.97
61205;BME280;47068;55.780;37.520;2022-12-29T14:53:06;99954.81;;;1.83;68.10
61205;BME280;47068;55.780;37.520;2022-12-29T14:55:55;99950.31;;;1.85;68.24
61205;BME280;47068;55.780;37.520;2022-12-29T15:00:50;99957.97;;;2.01;68.58
61205;BME280;47068;55.780;37.520;2022-12-29T15:03:31;99922.19;;;1.87;68.74
61205;BME280;47068;55.780;37.520;2022-12-29T15:06:04;99960.53;;;2.15;68.67
61205;BME280;47068;55.780;37.520;2022-12-29T15:08:35;99964.13;;;2.14;68.48
61205;BME280;47068;55.780;37.520;2022-12-29T15:11:31;99962.94;;;2.18;69.09
61205;BME280;47068;55.780;37.520;2022-12-29T15:14:27;99960.31;;;2.18;69.25
61205;BME280;47068;55.780;37.520;2022-12-29T15:16:53;99818.38;;;1.33;69.15
61205;BME280;47068;55.780;37.520;2022-12-29T15:19:26;99955.50;;;2.12;68.88
61205;BME280;47068;55.780;37.520;2022-12-29T15:21:53;99966.63;;;2.16;69.37
61205;BME280;47068;55.780;37.520;2022-12-29T15:24:20;99962.84;;;2.20;69.63
61205;BME280;47068;55.780;37.520;2022-12-29T15:26:48;99961.69;;;2.24;69.23
61205;BME280;47068;55.780;37.520;2022-12-29T15:34:41;99950.41;;;1.71;69.76
61205;BME280;47068;55.780;37.520;2022-12-29T15:37:08;99949.13;;;1.64;70.32
61205;BME280;47068;55.780;37.520;2022-12-29T15:39:34;99955.84;;;1.68;70.65
61205;BME280;47068;55.780;37.520;2022-12-29T15:42:09;99952.09;;;1.72;71.35
61205;BME280;47068;55.780;37.520;2022-12-29T15:44:43;99952.00;;;1.86;70.84
61205;BME280;47068;55.780;37.520;2022-12-29T15:47:21;99949.91;;;1.91;70.82
61205;BME280;47068;55.780;37.520;2022-12-29T15:49:49;99945.41;;;1.93;70.56
61205;BME280;47068;55.780;37.520;2022-12-29T15:52:22;99939.94;;;1.96;70.89